createdAt,value
2023-07-02T00:00:17.107Z,6.70
2023-07-02T00:02:47.747Z,7.20
2023-07-02T00:05:15.400Z,7.30
2023-07-02T00:07:43.083Z,6.80
2023-07-02T00:10:12.060Z,7.00
2023-07-02T00:12:39.814Z,7.80
2023-07-02T00:15:08.123Z,7.30
2023-07-02T00:17:35.793Z,6.40
2023-07-02T00:20:10.237Z,6.80
2023-07-02T00:22:38.060Z,6.20
2023-07-02T00:25:05.824Z,6.10
2023-07-02T00:27:33.501Z,5.60
2023-07-02T00:30:01.167Z,5.70
2023-07-02T00:32:29.357Z,5.70
2023-07-02T00:34:57.073Z,5.50
2023-07-02T00:37:24.631Z,5.20
2023-07-02T00:39:53.645Z,5.50
2023-07-02T00:42:21.797Z,5.20
2023-07-02T00:44:49.493Z,5.00
2023-07-02T00:47:18.038Z,5.80
2023-07-02T00:49:46.113Z,5.40
2023-07-02T00:52:13.688Z,5.40
2023-07-02T00:54:42.252Z,5.40
2023-07-02T00:57:10.461Z,4.80
2023-07-02T00:59:39.495Z,4.90
2023-07-02T01:02:09.381Z,4.80
2023-07-02T01:04:38.788Z,5.20
2023-07-02T01:07:11.273Z,4.90
2023-07-02T01:09:39.081Z,4.90
2023-07-02T01:14:41.550Z,4.60
2023-07-02T01:17:09.233Z,4.70
2023-07-02T01:19:43.065Z,5.30
2023-07-02T01:22:10.799Z,5.50
2023-07-02T01:24:40.131Z,6.30
2023-07-02T01:29:38.477Z,6.70
2023-07-02T01:32:06.818Z,7.00
2023-07-02T01:34:34.542Z,8.20
2023-07-02T01:37:03.073Z,8.30
2023-07-02T01:39:30.685Z,8.40
2023-07-02T01:42:08.786Z,8.50
2023-07-02T01:44:37.106Z,10.40
2023-07-02T01:47:05.238Z,11.70
2023-07-02T01:49:33.931Z,11.80
2023-07-02T01:52:01.703Z,12.20
2023-07-02T01:54:29.652Z,10.60
2023-07-02T01:56:57.961Z,10.30
2023-07-02T01:59:25.914Z,9.50
2023-07-02T02:01:53.663Z,7.90
2023-07-02T02:04:21.366Z,8.30
2023-07-02T02:06:49.201Z,6.80
2023-07-02T02:09:16.971Z,6.00
2023-07-02T02:11:49.236Z,5.60
2023-07-02T02:14:17.560Z,5.70
2023-07-02T02:16:48.910Z,6.30
2023-07-02T02:19:17.450Z,29.70
2023-07-02T02:21:45.449Z,32.40
2023-07-02T02:24:14.510Z,81.50
2023-07-02T02:26:42.172Z,34.40
2023-07-02T02:29:09.835Z,17.50
2023-07-02T02:31:37.695Z,67.40
2023-07-02T02:34:05.994Z,48.10
2023-07-02T02:36:34.156Z,14.40
2023-07-02T02:39:01.920Z,6.10
2023-07-02T02:41:30.292Z,6.10
2023-07-02T02:43:57.964Z,5.30
2023-07-02T02:46:25.678Z,5.50
2023-07-02T02:48:54.113Z,5.00
2023-07-02T02:51:21.886Z,5.10
2023-07-02T02:53:49.525Z,5.80
2023-07-02T02:56:17.694Z,7.50
2023-07-02T02:58:45.385Z,10.80
2023-07-02T03:01:13.692Z,9.00
2023-07-02T03:03:46.430Z,7.80
2023-07-02T03:06:16.066Z,7.30
2023-07-02T03:08:44.180Z,6.70
2023-07-02T03:11:12.091Z,5.90
2023-07-02T03:13:40.112Z,5.90
2023-07-02T03:16:08.345Z,5.40
2023-07-02T03:18:36.372Z,5.60
2023-07-02T03:21:04.142Z,5.80
2023-07-02T03:23:31.810Z,5.50
2023-07-02T03:25:59.489Z,7.00
2023-07-02T03:28:27.237Z,5.60
2023-07-02T03:30:54.935Z,6.80
2023-07-02T03:33:22.678Z,7.00
2023-07-02T03:35:50.220Z,6.80
2023-07-02T03:38:17.939Z,6.60
2023-07-02T03:40:46.355Z,6.50
2023-07-02T03:43:14.541Z,8.10
2023-07-02T03:45:42.211Z,10.70
2023-07-02T03:48:09.899Z,10.00
2023-07-02T03:50:37.656Z,6.30
2023-07-02T03:53:05.280Z,5.20
2023-07-02T03:55:33.086Z,6.50
2023-07-02T03:58:00.716Z,6.20
2023-07-02T04:00:28.381Z,6.30
2023-07-02T04:02:56.083Z,6.50
2023-07-02T04:05:23.794Z,6.60
2023-07-02T04:07:51.473Z,6.20
2023-07-02T04:10:19.228Z,6.30
2023-07-02T04:12:47.019Z,7.20
2023-07-02T04:15:14.652Z,6.60
2023-07-02T04:17:42.476Z,6.10
2023-07-02T04:20:11.429Z,6.10
2023-07-02T04:22:39.373Z,5.60
2023-07-02T04:25:18.030Z,5.50
2023-07-02T04:27:52.221Z,5.90
2023-07-02T04:32:48.521Z,6.00
2023-07-02T04:35:16.217Z,6.40
2023-07-02T04:37:43.874Z,6.60
2023-07-02T04:40:11.973Z,6.40
2023-07-02T04:42:40.338Z,7.20
2023-07-02T04:45:09.781Z,6.70
2023-07-02T04:47:38.273Z,6.10
2023-07-02T04:50:09.379Z,6.20
2023-07-02T04:52:37.036Z,5.90
2023-07-02T04:55:05.462Z,6.50
2023-07-02T04:57:33.272Z,6.00
2023-07-02T05:00:00.917Z,6.10
2023-07-02T05:02:28.606Z,5.50
2023-07-02T05:04:56.493Z,5.90
2023-07-02T05:07:24.524Z,5.70
2023-07-02T05:09:54.452Z,6.50
2023-07-02T05:12:22.097Z,6.70
2023-07-02T05:14:49.772Z,6.00
2023-07-02T05:17:17.659Z,5.90
2023-07-02T05:19:45.407Z,6.20
2023-07-02T05:22:13.377Z,6.20
2023-07-02T05:24:42.251Z,6.20
2023-07-02T05:27:09.952Z,5.90
2023-07-02T05:29:37.576Z,6.30
2023-07-02T05:32:06.113Z,5.80
2023-07-02T05:34:35.266Z,6.20
2023-07-02T05:37:03.018Z,5.40
2023-07-02T05:39:32.043Z,5.20
2023-07-02T05:41:59.683Z,6.10
2023-07-02T05:44:27.448Z,6.00
2023-07-02T05:46:55.158Z,5.40
2023-07-02T05:49:22.970Z,5.20
2023-07-02T05:51:50.652Z,5.40
2023-07-02T05:54:18.395Z,5.70
2023-07-02T05:56:46.083Z,5.80
2023-07-02T05:59:16.280Z,5.30
2023-07-02T06:01:45.986Z,5.60
2023-07-02T06:04:14.089Z,5.10
2023-07-02T06:06:41.824Z,6.00
2023-07-02T06:09:09.511Z,5.90
2023-07-02T06:11:37.149Z,6.00
2023-07-02T06:14:04.853Z,6.20
2023-07-02T06:16:32.484Z,5.60
2023-07-02T06:19:00.303Z,5.80
2023-07-02T06:21:31.193Z,6.10
2023-07-02T06:24:00.221Z,6.10
2023-07-02T06:26:28.124Z,5.90
2023-07-02T06:28:56.110Z,6.20
2023-07-02T06:31:23.913Z,5.80
2023-07-02T06:33:51.742Z,7.60
2023-07-02T06:36:20.876Z,6.90
2023-07-02T06:41:16.793Z,6.00
2023-07-02T06:43:47.403Z,5.60
2023-07-02T06:46:15.280Z,6.20
2023-07-02T06:48:43.253Z,5.20
2023-07-02T06:51:13.917Z,5.70
2023-07-02T06:53:42.724Z,5.70
2023-07-02T06:56:13.297Z,5.40
2023-07-02T06:58:46.195Z,5.30
2023-07-02T07:01:13.834Z,6.10
2023-07-02T07:03:41.424Z,5.60
2023-07-02T07:06:09.265Z,5.00
2023-07-02T07:08:43.078Z,5.30
2023-07-02T07:11:10.871Z,5.50
2023-07-02T07:13:38.807Z,5.50
2023-07-02T07:16:06.508Z,5.40
2023-07-02T07:18:34.440Z,5.10
2023-07-02T07:21:02.407Z,5.50
2023-07-02T07:23:30.070Z,5.20
2023-07-02T07:25:57.832Z,4.70
2023-07-02T07:28:25.507Z,5.00
2023-07-02T07:30:53.330Z,5.10
2023-07-02T07:33:21.273Z,4.80
2023-07-02T07:35:48.983Z,4.50
2023-07-02T07:38:16.747Z,5.50
2023-07-02T07:40:44.722Z,5.10
2023-07-02T07:43:12.994Z,4.80
2023-07-02T07:45:40.725Z,4.00
2023-07-02T07:48:08.576Z,4.70
2023-07-02T07:50:36.328Z,5.00
2023-07-02T07:53:04.362Z,4.40
2023-07-02T07:55:32.082Z,5.00
2023-07-02T07:57:59.796Z,4.50
2023-07-02T08:00:28.285Z,4.20
2023-07-02T08:02:57.075Z,3.70
2023-07-02T08:10:23.035Z,4.10
2023-07-02T08:12:51.285Z,4.00
2023-07-02T08:15:19.472Z,4.00
2023-07-02T08:17:47.138Z,3.90
2023-07-02T08:20:15.029Z,3.80
2023-07-02T08:22:42.748Z,4.40
2023-07-02T08:25:10.412Z,5.10
2023-07-02T08:27:38.075Z,3.50
2023-07-02T08:30:06.580Z,3.60
2023-07-02T08:32:35.006Z,3.60
2023-07-02T08:35:02.926Z,2.90
2023-07-02T08:37:30.817Z,3.80
2023-07-02T08:39:58.742Z,3.60
2023-07-02T08:42:30.999Z,2.90
2023-07-02T08:44:59.399Z,2.90
2023-07-02T08:47:27.060Z,2.70
2023-07-02T08:49:54.943Z,2.70
2023-07-02T08:52:22.679Z,3.40
2023-07-02T08:54:50.451Z,2.70
2023-07-02T08:57:18.106Z,3.10
2023-07-02T08:59:46.189Z,2.80
2023-07-02T09:02:13.859Z,3.40
2023-07-02T09:04:41.585Z,3.10
2023-07-02T09:07:10.961Z,2.90
2023-07-02T09:09:49.031Z,2.50
2023-07-02T09:12:30.292Z,3.50
2023-07-02T09:15:07.988Z,3.00
2023-07-02T09:17:37.593Z,3.00
2023-07-02T09:20:08.306Z,2.80
2023-07-02T09:22:36.523Z,3.50
2023-07-02T09:25:04.812Z,3.30
2023-07-02T09:27:42.771Z,3.30
2023-07-02T09:30:16.852Z,2.70
2023-07-02T09:32:46.118Z,2.90
2023-07-02T09:35:14.404Z,2.90
2023-07-02T09:37:45.525Z,2.60
2023-07-02T09:40:13.381Z,2.80
2023-07-02T09:42:41.999Z,4.40
2023-07-02T09:45:11.797Z,3.90
2023-07-02T09:47:46.078Z,4.00
2023-07-02T09:50:13.788Z,4.10
2023-07-02T09:52:41.531Z,2.70
2023-07-02T09:55:09.727Z,2.60
2023-07-02T09:57:38.946Z,2.40
2023-07-02T10:00:09.021Z,2.70
2023-07-02T10:02:39.754Z,4.40
2023-07-02T10:05:08.014Z,4.10
2023-07-02T10:07:35.932Z,2.60
2023-07-02T10:10:04.167Z,2.20
2023-07-02T10:12:31.937Z,2.10
2023-07-02T10:15:00.052Z,4.30
2023-07-02T10:17:32.853Z,13.30
2023-07-02T10:20:02.404Z,9.30
2023-07-02T10:22:30.377Z,5.50
2023-07-02T10:25:01.533Z,3.60
2023-07-02T10:27:40.275Z,2.60
2023-07-02T10:30:09.578Z,2.50
2023-07-02T10:32:39.588Z,2.90
2023-07-02T10:35:17.978Z,4.10
2023-07-02T10:37:46.469Z,3.20
2023-07-02T10:40:14.749Z,2.80
2023-07-02T10:42:49.778Z,2.20
2023-07-02T10:45:18.707Z,25.30
2023-07-02T10:47:47.022Z,8.10
2023-07-02T10:50:24.595Z,5.60
2023-07-02T10:52:52.412Z,14.10
2023-07-02T10:55:20.269Z,9.10
2023-07-02T10:57:49.763Z,4.10
2023-07-02T11:00:17.759Z,2.00
2023-07-02T11:02:45.631Z,3.60
2023-07-02T11:05:14.183Z,5.20
2023-07-02T11:07:44.998Z,12.30
2023-07-02T11:10:19.421Z,5.30
2023-07-02T11:12:47.144Z,2.70
2023-07-02T11:15:16.300Z,4.40
2023-07-02T11:17:44.087Z,4.20
2023-07-02T11:20:13.415Z,2.70
2023-07-02T11:22:42.438Z,3.80
2023-07-02T11:27:51.103Z,6.10
2023-07-02T11:30:18.757Z,36.30
2023-07-02T11:32:54.654Z,18.20
2023-07-02T11:35:23.092Z,11.10
2023-07-02T11:37:55.249Z,5.50
2023-07-02T11:40:22.949Z,2.90
2023-07-02T11:42:50.670Z,3.20
2023-07-02T11:45:18.640Z,4.40
2023-07-02T11:47:46.345Z,6.10
2023-07-02T11:50:25.296Z,3.40
2023-07-02T11:52:54.958Z,2.30
2023-07-02T11:55:23.034Z,1.90
2023-07-02T11:57:51.080Z,3.20
2023-07-02T12:00:19.156Z,2.00
2023-07-02T12:02:46.882Z,1.90
2023-07-02T12:05:14.800Z,3.00
2023-07-02T12:07:42.795Z,2.10
2023-07-02T12:10:10.908Z,2.30
2023-07-02T12:12:38.607Z,3.30
2023-07-02T12:15:06.965Z,5.20
2023-07-02T12:17:34.864Z,3.70
2023-07-02T12:20:02.601Z,3.80
2023-07-02T12:22:30.258Z,2.70
2023-07-02T12:24:58.886Z,2.70
2023-07-02T12:27:28.427Z,6.50
2023-07-02T12:29:57.578Z,4.70
2023-07-02T12:32:25.245Z,10.90
2023-07-02T12:34:52.966Z,3.90
2023-07-02T12:37:22.182Z,2.50
2023-07-02T12:39:49.838Z,6.30
2023-07-02T12:42:17.510Z,7.50
2023-07-02T12:44:46.291Z,3.90
2023-07-02T12:47:14.043Z,3.60
2023-07-02T12:49:41.705Z,2.80
2023-07-02T12:52:09.475Z,3.40
2023-07-02T12:54:37.253Z,2.50
2023-07-02T12:57:05.521Z,3.20
2023-07-02T12:59:33.319Z,3.00
2023-07-02T13:02:01.216Z,3.40
2023-07-02T13:04:29.897Z,3.70
2023-07-02T13:06:57.835Z,3.30
2023-07-02T13:09:25.562Z,2.60
2023-07-02T13:11:53.235Z,2.10
2023-07-02T13:14:21.092Z,3.30
2023-07-02T13:16:49.175Z,9.20
2023-07-02T13:19:17.248Z,3.30
2023-07-02T13:21:45.326Z,2.30
2023-07-02T13:24:13.792Z,2.20
2023-07-02T13:26:42.639Z,1.70
2023-07-02T13:29:12.095Z,2.40
2023-07-02T13:31:39.895Z,3.10
2023-07-02T13:34:08.765Z,2.60
2023-07-02T13:39:04.365Z,5.80
2023-07-02T13:41:32.138Z,3.90
2023-07-02T13:43:59.925Z,5.20
2023-07-02T13:46:28.597Z,2.60
2023-07-02T13:48:57.063Z,2.40
2023-07-02T13:51:24.861Z,10.20
2023-07-02T13:53:52.600Z,4.80
2023-07-02T13:56:20.368Z,8.30
2023-07-02T13:59:08.302Z,8.40
2023-07-02T14:01:36.202Z,8.20
2023-07-02T14:04:04.760Z,5.00
2023-07-02T14:06:33.054Z,7.10
2023-07-02T14:09:00.898Z,5.10
2023-07-02T14:11:29.169Z,5.00
2023-07-02T14:13:57.241Z,2.80
2023-07-02T14:16:25.478Z,1.90
2023-07-02T14:18:53.402Z,4.40
2023-07-02T14:21:21.755Z,3.80
2023-07-02T14:23:49.539Z,3.50
2023-07-02T14:26:17.900Z,7.40
2023-07-02T14:28:45.664Z,8.20
2023-07-02T14:31:13.471Z,8.00
2023-07-02T14:33:41.703Z,4.40
2023-07-02T14:36:09.490Z,3.00
2023-07-02T14:38:37.228Z,3.10
2023-07-02T14:41:05.336Z,2.30
2023-07-02T14:43:33.272Z,3.20
2023-07-02T14:46:02.382Z,2.70
2023-07-02T14:48:30.131Z,4.20
2023-07-02T14:50:59.859Z,4.20
2023-07-02T14:55:57.216Z,2.60
2023-07-02T14:58:25.279Z,3.40
2023-07-02T15:00:55.954Z,2.00
2023-07-02T15:03:24.691Z,3.00
2023-07-02T15:05:53.396Z,4.90
2023-07-02T15:10:56.019Z,3.70
2023-07-02T15:13:25.228Z,3.90
2023-07-02T15:15:53.340Z,2.90
2023-07-02T15:18:24.131Z,2.60
2023-07-02T15:20:54.602Z,2.30
2023-07-02T15:23:22.817Z,3.00
2023-07-02T15:26:01.104Z,3.10
2023-07-02T15:28:29.307Z,2.70
2023-07-02T15:31:02.599Z,2.20
2023-07-02T15:33:30.340Z,2.20
2023-07-02T15:36:00.784Z,2.60
2023-07-02T15:38:28.836Z,2.80
2023-07-02T15:41:08.214Z,2.60
2023-07-02T15:43:36.492Z,2.50
2023-07-02T15:46:04.576Z,2.00
2023-07-02T15:48:32.529Z,2.90
2023-07-02T15:51:00.254Z,3.20
2023-07-02T15:53:28.025Z,8.90
2023-07-02T15:55:59.289Z,6.70
2023-07-02T15:58:28.146Z,5.20
2023-07-02T16:00:55.924Z,4.20
2023-07-02T16:03:24.597Z,5.80
2023-07-02T16:08:27.501Z,3.90
2023-07-02T16:10:55.294Z,3.00
2023-07-02T16:13:23.134Z,4.00
2023-07-02T16:15:51.099Z,3.30
2023-07-02T16:18:19.008Z,2.50
2023-07-02T16:20:57.440Z,1.90
2023-07-02T16:23:25.365Z,4.00
2023-07-02T16:26:04.990Z,3.30
2023-07-02T16:28:34.250Z,3.10
2023-07-02T16:31:02.391Z,4.80
2023-07-02T16:33:34.880Z,4.60
2023-07-02T16:36:13.153Z,3.40
2023-07-02T16:38:41.019Z,3.90
2023-07-02T16:41:08.680Z,4.90
2023-07-02T16:43:36.646Z,4.10
2023-07-02T16:46:04.599Z,5.20
2023-07-02T16:48:32.383Z,5.10
2023-07-02T16:51:05.923Z,6.80
2023-07-02T16:53:33.544Z,5.30
2023-07-02T16:56:01.821Z,3.50
2023-07-02T16:58:30.525Z,3.40
2023-07-02T17:01:12.038Z,3.80
2023-07-02T17:03:40.057Z,3.50
2023-07-02T17:06:08.063Z,3.00
2023-07-02T17:08:40.153Z,3.60
2023-07-02T17:11:09.397Z,2.70
2023-07-02T17:13:37.605Z,2.70
2023-07-02T17:16:06.163Z,2.80
2023-07-02T17:18:34.541Z,2.70
2023-07-02T17:21:02.403Z,3.10
2023-07-02T17:23:30.164Z,3.10
2023-07-02T17:26:02.817Z,3.20
2023-07-02T17:28:32.248Z,3.20
2023-07-02T17:31:01.520Z,2.60
2023-07-02T17:33:29.419Z,3.20
2023-07-02T17:35:57.383Z,2.60
2023-07-02T17:38:25.287Z,3.40
2023-07-02T17:40:53.223Z,2.90
2023-07-02T17:43:21.319Z,3.00
2023-07-02T17:45:56.133Z,3.10
2023-07-02T17:48:26.044Z,3.20
2023-07-02T17:50:55.929Z,3.50
2023-07-02T17:53:23.914Z,3.40
2023-07-02T17:55:52.001Z,3.40
2023-07-02T17:58:20.182Z,3.30
2023-07-02T18:00:51.915Z,3.50
2023-07-02T18:03:20.327Z,4.60
2023-07-02T18:05:49.296Z,7.40
2023-07-02T18:08:17.779Z,4.30
2023-07-02T18:10:50.156Z,3.70
2023-07-02T18:13:18.219Z,3.70
2023-07-02T18:15:46.325Z,3.80
2023-07-02T18:18:14.465Z,5.20
2023-07-02T18:20:43.520Z,4.00
2023-07-02T18:23:11.753Z,3.50
2023-07-02T18:25:39.698Z,3.40
2023-07-02T18:28:11.360Z,3.80
2023-07-02T18:30:46.291Z,3.70
2023-07-02T18:33:13.955Z,5.90
2023-07-02T18:35:42.785Z,4.90
2023-07-02T18:38:10.811Z,4.20
2023-07-02T18:40:38.588Z,3.40
2023-07-02T18:43:06.251Z,3.20
2023-07-02T18:45:34.410Z,7.00
2023-07-02T18:48:02.715Z,4.10
2023-07-02T18:50:30.657Z,3.80
2023-07-02T18:52:58.666Z,6.90
2023-07-02T18:55:26.494Z,4.40
2023-07-02T18:57:54.457Z,3.50
2023-07-02T19:00:22.259Z,3.40
2023-07-02T19:02:50.569Z,2.90
2023-07-02T19:05:19.032Z,3.00
2023-07-02T19:07:46.852Z,3.20
2023-07-02T19:10:17.078Z,3.10
2023-07-02T19:12:46.793Z,2.60
2023-07-02T19:15:14.750Z,3.30
2023-07-02T19:17:43.520Z,2.90
2023-07-02T19:20:11.955Z,3.10
2023-07-02T19:22:39.908Z,3.00
2023-07-02T19:25:08.679Z,4.50
2023-07-02T19:27:36.947Z,3.90
2023-07-02T19:30:06.684Z,3.50
2023-07-02T19:32:38.286Z,3.30
2023-07-02T19:35:10.098Z,5.10
2023-07-02T19:37:37.961Z,4.50
2023-07-02T19:40:08.204Z,5.90
2023-07-02T19:42:36.033Z,5.60
2023-07-02T19:45:03.899Z,5.30
2023-07-02T19:47:32.189Z,5.60
2023-07-02T19:50:00.772Z,4.10
2023-07-02T19:52:29.748Z,4.30
2023-07-02T19:55:03.460Z,6.10
2023-07-02T19:57:31.133Z,17.90
2023-07-02T20:00:01.977Z,6.60
2023-07-02T20:02:37.807Z,13.20
2023-07-02T20:05:07.245Z,15.30
2023-07-02T20:07:35.686Z,9.30
2023-07-02T20:10:07.549Z,6.00
2023-07-02T20:12:38.103Z,5.00
2023-07-02T20:15:06.963Z,5.70
2023-07-02T20:17:35.488Z,5.10
2023-07-02T20:20:05.578Z,4.70
2023-07-02T20:22:33.535Z,5.10
2023-07-02T20:25:24.936Z,4.20
2023-07-02T20:27:48.952Z,3.60
2023-07-02T20:30:16.795Z,4.10
2023-07-02T20:32:44.936Z,3.80
2023-07-02T20:35:12.936Z,4.30
2023-07-02T20:37:40.606Z,7.50
2023-07-02T20:40:14.503Z,5.00
2023-07-02T20:42:42.581Z,4.50
2023-07-02T20:45:13.313Z,4.20
2023-07-02T20:47:42.566Z,5.10
2023-07-02T20:50:12.252Z,4.80
2023-07-02T20:52:40.907Z,5.70
2023-07-02T20:55:09.217Z,16.30
2023-07-02T20:57:36.988Z,14.70
2023-07-02T21:00:12.549Z,27.60
2023-07-02T21:02:41.415Z,13.60
2023-07-02T21:05:09.668Z,13.30
2023-07-02T21:07:37.333Z,9.70
2023-07-02T21:10:06.336Z,19.40
2023-07-02T21:12:34.086Z,14.40
2023-07-02T21:15:02.059Z,6.50
2023-07-02T21:17:29.852Z,3.90
2023-07-02T21:19:57.813Z,3.50
2023-07-02T21:22:25.549Z,3.60
2023-07-02T21:24:53.316Z,3.30
2023-07-02T21:27:22.333Z,3.40
2023-07-02T21:29:55.853Z,3.40
2023-07-02T21:32:24.105Z,3.40
2023-07-02T21:34:53.806Z,3.40
2023-07-02T21:37:22.082Z,3.80
2023-07-02T21:39:49.836Z,18.30
2023-07-02T21:42:17.628Z,14.40
2023-07-02T21:44:45.363Z,5.80
2023-07-02T21:47:13.374Z,4.20
2023-07-02T21:49:41.099Z,5.40
2023-07-02T21:52:08.865Z,23.30
2023-07-02T21:54:36.654Z,8.60
2023-07-02T21:57:05.103Z,5.80
2023-07-02T21:59:32.799Z,4.30
2023-07-02T22:02:00.460Z,3.90
2023-07-02T22:04:28.277Z,3.90
2023-07-02T22:06:57.593Z,3.50
2023-07-02T22:09:25.256Z,3.60
2023-07-02T22:11:52.927Z,3.80
2023-07-02T22:14:20.579Z,3.50
2023-07-02T22:16:48.307Z,4.20
2023-07-02T22:19:15.897Z,4.20
2023-07-02T22:21:46.137Z,4.00
2023-07-02T22:24:13.993Z,3.80
2023-07-02T22:26:41.677Z,20.60
2023-07-02T22:29:09.439Z,5.90
2023-07-02T22:31:37.136Z,3.80
2023-07-02T22:34:04.876Z,3.70
2023-07-02T22:36:32.611Z,3.20
2023-07-02T22:39:00.334Z,2.70
2023-07-02T22:41:28.036Z,3.00
2023-07-02T22:43:56.006Z,3.10
2023-07-02T22:46:23.714Z,2.70
2023-07-02T22:48:51.338Z,3.60
2023-07-02T22:51:19.118Z,3.00
2023-07-02T22:53:47.062Z,5.30
2023-07-02T22:56:16.782Z,12.70
2023-07-02T22:58:44.754Z,6.60
2023-07-02T23:01:13.961Z,6.70
2023-07-02T23:03:42.067Z,4.30
2023-07-02T23:06:10.082Z,4.30
2023-07-02T23:08:37.881Z,3.40
2023-07-02T23:11:05.508Z,3.50
2023-07-02T23:13:33.170Z,3.10
2023-07-02T23:16:04.187Z,3.10
2023-07-02T23:18:35.842Z,2.90
2023-07-02T23:21:04.245Z,3.00
2023-07-02T23:23:32.006Z,21.10
2023-07-02T23:25:59.775Z,14.80
2023-07-02T23:28:27.552Z,13.50
2023-07-02T23:30:55.224Z,13.00
2023-07-02T23:33:23.308Z,21.30
2023-07-02T23:35:51.230Z,14.70
2023-07-02T23:38:19.714Z,18.40
2023-07-02T23:40:47.997Z,19.30
2023-07-02T23:43:15.692Z,7.90
2023-07-02T23:45:43.540Z,9.40
2023-07-02T23:48:11.287Z,10.60
2023-07-02T23:50:39.192Z,10.30
2023-07-02T23:53:07.223Z,9.00
2023-07-02T23:55:35.194Z,6.50
2023-07-02T23:58:02.869Z,6.20
